createdAt,value
2022-08-23T00:07:43.896Z,99.90
2022-08-23T00:10:19.057Z,99.90
2022-08-23T00:15:20.497Z,99.90
2022-08-23T00:17:53.199Z,99.90
2022-08-23T00:30:15.966Z,99.90
2022-08-23T00:32:45.380Z,99.90
2022-08-23T00:35:17.624Z,99.90
2022-08-23T00:38:29.869Z,99.90
2022-08-23T00:40:51.231Z,99.90
2022-08-23T00:43:49.259Z,99.90
2022-08-23T00:47:23.430Z,99.90
2022-08-23T00:50:24.087Z,99.90
2022-08-23T00:53:23.049Z,99.90
2022-08-23T00:55:57.603Z,99.90
2022-08-23T00:58:27.577Z,99.90
2022-08-23T01:00:58.869Z,99.90
2022-08-23T01:03:38.502Z,99.90
2022-08-23T01:08:38.569Z,99.90
2022-08-23T01:11:25.842Z,99.90
2022-08-23T01:14:03.956Z,99.90
2022-08-23T01:16:58.118Z,99.90
2022-08-23T01:19:44.814Z,99.90
2022-08-23T01:27:41.021Z,99.90
2022-08-23T01:30:12.783Z,99.90
2022-08-23T01:32:58.996Z,99.90
2022-08-23T01:35:42.326Z,99.90
2022-08-23T01:38:12.172Z,99.90
2022-08-23T01:40:41.678Z,99.90
2022-08-23T01:53:07.234Z,99.90
2022-08-23T01:58:06.092Z,99.90
2022-08-23T02:00:40.659Z,99.90
2022-08-23T02:03:12.603Z,99.90
2022-08-23T02:05:42.798Z,99.90
2022-08-23T02:16:04.971Z,99.90
2022-08-23T02:51:08.189Z,99.90
2022-08-23T02:58:54.558Z,99.90
2022-08-23T03:01:30.673Z,99.90
2022-08-23T03:04:09.649Z,99.90
2022-08-23T03:06:39.078Z,99.90
2022-08-23T03:09:08.772Z,99.90
2022-08-23T03:26:35.800Z,99.90
2022-08-23T03:57:03.223Z,99.90
2022-08-23T03:59:36.933Z,99.90
2022-08-23T04:34:59.596Z,99.90
2022-08-23T05:00:52.980Z,99.90
2022-08-23T05:11:07.253Z,99.90
2022-08-23T05:16:09.358Z,99.90
2022-08-23T05:21:20.962Z,99.90
2022-08-23T05:31:26.925Z,99.90
2022-08-23T05:42:09.048Z,99.90
2022-08-23T05:47:12.396Z,99.90
2022-08-23T05:57:39.011Z,99.90
2022-08-23T06:00:13.415Z,99.90
2022-08-23T06:02:49.280Z,99.90
2022-08-23T06:39:07.754Z,99.90
2022-08-23T06:45:05.032Z,99.90
2022-08-23T07:01:48.485Z,99.90
2022-08-23T07:04:31.454Z,99.90
2022-08-23T08:06:19.469Z,99.90
2022-08-23T08:08:48.900Z,99.90
2022-08-23T08:11:21.070Z,99.90
2022-08-23T08:13:51.679Z,99.90
2022-08-23T08:16:35.542Z,99.90
2022-08-23T08:19:09.322Z,99.90
2022-08-23T08:36:58.856Z,99.90
2022-08-23T08:39:32.201Z,99.90
2022-08-23T08:45:09.829Z,99.90
2022-08-23T08:48:13.160Z,99.90
2022-08-23T08:51:01.044Z,99.90
2022-08-23T08:53:35.923Z,99.90
2022-08-23T08:56:21.958Z,99.90
2022-08-23T08:59:04.436Z,99.90
2022-08-23T09:01:36.750Z,99.90
2022-08-23T09:04:07.215Z,99.90
2022-08-23T09:07:08.556Z,99.90
2022-08-23T09:10:20.105Z,99.90
2022-08-23T09:13:09.552Z,99.90
2022-08-23T09:18:25.483Z,99.90
2022-08-23T09:20:56.541Z,99.90
2022-08-23T09:23:39.195Z,99.90
2022-08-23T09:26:28.107Z,99.90
2022-08-23T09:29:26.057Z,99.90
2022-08-23T09:31:58.583Z,99.90
2022-08-23T09:34:31.310Z,99.90
2022-08-23T09:37:24.620Z,99.90
2022-08-23T09:40:25.897Z,99.90
2022-08-23T09:43:26.980Z,99.90
2022-08-23T09:46:01.159Z,99.90
2022-08-23T09:48:41.775Z,99.90
2022-08-23T09:51:36.191Z,99.90
2022-08-23T09:54:18.425Z,99.90
2022-08-23T09:56:57.908Z,99.90
2022-08-23T09:59:27.356Z,99.90
2022-08-23T10:02:03.202Z,99.90
2022-08-23T10:04:46.962Z,99.90
2022-08-23T10:07:35.467Z,99.90
2022-08-23T10:10:48.592Z,99.90
2022-08-23T10:16:12.794Z,99.90
2022-08-23T10:19:30.769Z,99.90
2022-08-23T10:22:28.790Z,99.90
2022-08-23T10:25:48.971Z,99.90
2022-08-23T10:29:03.185Z,99.90
2022-08-23T10:34:25.588Z,99.90
2022-08-23T10:40:08.790Z,99.90
2022-08-23T10:43:31.127Z,99.90
2022-08-23T10:46:02.642Z,99.90
2022-08-23T10:48:51.785Z,99.90
2022-08-23T10:51:32.315Z,99.90
2022-08-23T10:54:12.655Z,99.90
2022-08-23T10:56:48.875Z,99.90
2022-08-23T10:59:26.232Z,99.90
2022-08-23T11:02:29.901Z,99.90
2022-08-23T11:05:32.685Z,99.90
2022-08-23T11:08:13.261Z,99.90
2022-08-23T11:10:56.232Z,99.90
2022-08-23T11:13:30.584Z,98.00
2022-08-23T11:16:15.975Z,99.90
2022-08-23T11:18:50.941Z,98.00
2022-08-23T11:21:33.507Z,99.90
2022-08-23T11:26:40.089Z,99.90
2022-08-23T11:32:39.005Z,99.90
2022-08-23T11:38:03.869Z,97.80
2022-08-23T11:40:49.477Z,98.20
2022-08-23T11:43:37.835Z,96.50
2022-08-23T11:46:36.012Z,95.30
2022-08-23T11:49:31.230Z,95.00
2022-08-23T11:52:37.669Z,93.20
2022-08-23T11:55:20.520Z,93.00
2022-08-23T11:57:58.838Z,91.90
2022-08-23T12:01:16.239Z,94.90
2022-08-23T12:04:12.158Z,89.70
2022-08-23T12:06:51.514Z,91.10
2022-08-23T12:09:26.945Z,87.80
2022-08-23T12:11:57.847Z,91.60
2022-08-23T12:14:33.096Z,85.10
2022-08-23T12:17:26.599Z,90.70
2022-08-23T12:20:16.544Z,86.20
2022-08-23T12:23:17.559Z,84.50
2022-08-23T12:25:46.407Z,83.60
2022-08-23T12:28:44.349Z,78.20
2022-08-23T12:31:38.588Z,78.20
2022-08-23T12:34:31.912Z,80.30
2022-08-23T12:37:22.053Z,87.30
2022-08-23T12:40:00.845Z,75.20
2022-08-23T12:42:35.132Z,76.70
2022-08-23T12:45:15.414Z,72.10
2022-08-23T12:47:55.702Z,74.90
2022-08-23T12:50:44.771Z,75.30
2022-08-23T12:53:25.871Z,69.40
2022-08-23T12:56:14.714Z,73.80
2022-08-23T12:58:52.781Z,71.60
2022-08-23T13:01:41.988Z,75.30
2022-08-23T13:04:13.987Z,72.70
2022-08-23T13:06:52.225Z,69.80
2022-08-23T13:09:38.639Z,85.60
2022-08-23T13:12:08.925Z,70.20
2022-08-23T13:14:54.010Z,73.30
2022-08-23T13:17:27.592Z,69.30
2022-08-23T13:20:01.300Z,75.60
2022-08-23T13:22:34.657Z,69.70
2022-08-23T13:25:28.676Z,65.90
2022-08-23T13:28:21.288Z,69.00
2022-08-23T13:31:08.893Z,74.30
2022-08-23T13:36:21.591Z,72.20
2022-08-23T13:38:50.381Z,66.00
2022-08-23T13:41:39.094Z,61.70
2022-08-23T13:44:09.441Z,66.70
2022-08-23T13:46:46.978Z,65.20
2022-08-23T13:49:20.512Z,62.60
2022-08-23T13:52:37.894Z,66.30
2022-08-23T13:57:22.421Z,65.60
2022-08-23T13:59:55.027Z,65.30
2022-08-23T14:02:24.281Z,64.40
2022-08-23T14:04:52.319Z,63.40
2022-08-23T14:07:20.605Z,69.00
2022-08-23T14:12:29.386Z,61.90
2022-08-23T14:14:59.690Z,64.80
2022-08-23T14:17:28.577Z,56.50
2022-08-23T14:27:46.105Z,57.10
2022-08-23T14:30:30.286Z,62.00
2022-08-23T14:32:59.978Z,61.50
2022-08-23T14:40:35.783Z,57.00
2022-08-23T14:43:05.844Z,56.20
2022-08-23T14:48:02.329Z,69.10
2022-08-23T15:28:20.409Z,56.60
2022-08-23T15:30:50.645Z,59.60
2022-08-23T15:38:25.524Z,55.30
2022-08-23T15:40:55.110Z,60.80
2022-08-23T15:46:14.589Z,58.10
2022-08-23T15:49:02.672Z,58.40
2022-08-23T15:51:31.734Z,54.10
2022-08-23T15:56:34.774Z,64.70
2022-08-23T15:59:07.007Z,56.30
2022-08-23T16:06:36.622Z,57.90
2022-08-23T16:09:09.236Z,57.40
2022-08-23T16:16:39.492Z,55.80
2022-08-23T16:19:09.134Z,56.20
2022-08-23T16:24:07.081Z,54.90
2022-08-23T16:26:43.647Z,57.30
2022-08-23T16:29:17.358Z,57.60
2022-08-23T16:31:46.798Z,57.00
2022-08-23T16:34:20.111Z,59.00
2022-08-23T16:36:56.868Z,56.50
2022-08-23T16:44:22.938Z,66.00
2022-08-23T16:46:51.884Z,58.60
2022-08-23T16:51:49.283Z,59.60
2022-08-23T17:01:53.703Z,59.40
2022-08-23T17:06:56.077Z,58.30
2022-08-23T17:09:27.125Z,60.40
2022-08-23T17:14:26.901Z,59.40
2022-08-23T17:16:55.334Z,63.00
2022-08-23T17:19:24.150Z,61.40
2022-08-23T17:36:50.402Z,61.80
2022-08-23T17:39:23.472Z,62.60
2022-08-23T17:41:51.452Z,62.90
2022-08-23T17:46:48.938Z,64.80
2022-08-23T17:49:18.780Z,65.40
2022-08-23T17:51:51.287Z,65.60
2022-08-23T17:54:19.541Z,66.20
2022-08-23T17:56:50.342Z,66.90
2022-08-23T17:59:20.568Z,67.80
2022-08-23T18:11:44.789Z,72.10
2022-08-23T18:14:13.172Z,73.50
2022-08-23T18:16:45.394Z,73.00
2022-08-23T18:21:44.184Z,73.40
2022-08-23T18:24:12.760Z,74.90
2022-08-23T18:27:00.099Z,75.80
2022-08-23T18:29:31.830Z,75.40
2022-08-23T18:36:59.358Z,79.00
2022-08-23T18:39:31.702Z,80.60
2022-08-23T18:42:05.568Z,80.20
2022-08-23T18:44:33.517Z,82.40
2022-08-23T18:47:02.727Z,83.70
2022-08-23T18:49:33.779Z,79.50
2022-08-23T18:52:03.322Z,81.80
2022-08-23T19:04:30.291Z,86.50
2022-08-23T19:06:58.485Z,84.70
2022-08-23T19:16:51.062Z,89.20
2022-08-23T19:26:47.732Z,90.90
2022-08-23T19:29:18.794Z,92.30
2022-08-23T19:34:18.737Z,92.90
2022-08-23T19:36:51.767Z,93.50
2022-08-23T19:56:54.882Z,95.20
2022-08-23T19:59:36.790Z,95.30
2022-08-23T20:04:34.151Z,96.10
2022-08-23T20:07:04.505Z,95.70
2022-08-23T20:09:34.009Z,97.20
2022-08-23T20:17:04.669Z,97.60
2022-08-23T20:22:23.332Z,97.90
2022-08-23T20:27:29.062Z,98.70
2022-08-23T20:30:02.943Z,99.00
2022-08-23T20:35:01.314Z,99.90
2022-08-23T20:37:30.458Z,99.80
2022-08-23T21:44:21.110Z,99.90
2022-08-23T21:59:14.886Z,99.90
2022-08-23T22:04:13.791Z,99.90
2022-08-23T22:06:44.358Z,99.90
2022-08-23T22:09:18.929Z,99.90
2022-08-23T22:11:49.150Z,99.90
2022-08-23T22:14:24.017Z,99.90
2022-08-23T22:41:50.178Z,99.90
2022-08-23T22:49:15.594Z,99.90
2022-08-23T22:56:53.524Z,99.90
2022-08-23T22:59:27.750Z,99.90
2022-08-23T23:04:33.767Z,99.90
2022-08-23T23:29:39.427Z,99.90
2022-08-23T23:32:07.554Z,99.90
2022-08-23T23:47:03.609Z,99.90
2022-08-23T23:52:07.384Z,99.90
2022-08-23T23:57:06.001Z,99.90
